Have a Safe July 4th! 

Flight Track Log - Related Links

Times and Time Zones

All times are in EDT time to prevent confusion due to time zone crossing. See the UAL4191 flight status page for this flight to view local times or setup timezone preferences in your user account.

Time Position Orientation Groundspeed Altitude Reporting Facility
EDT Latitude Longitude Course Direction KTS MPH feet Rate Location/Type
Fri 07:37:35 PM 40.6333 -74.1833 258° West 175 201 2,200  Level New York TRACON
Fri 07:38:35 PM 40.6333 -74.2667 270° West 245 282 3,500 2,000 Climbing New York TRACON
Fri 07:39:35 PM 40.6167 -74.3667 258° West 264 304 6,200 2,400 Climbing New York TRACON
Fri 07:40:00 PM 40.6833 -74.7192 270° West  Level FlightAware Approximate
Fri 07:40:35 PM 40.6167 -74.4500 270° West 266 306 8,300  Level New York TRACON
Fri 07:41:00 PM 40.6834 -74.8573 270° West  Level FlightAware Approximate
Fri 07:41:29 PM 40.6167 -74.5500 270° West 286 329 9,900  Level New York TRACON
Fri 07:42:00 PM 40.6786 -74.9948 258° West  Level FlightAware Approximate
Fri 07:42:22 PM 40.6294 -74.6403 281° West 309 356 11,500  Level New York Center
Fri 07:43:23 PM 40.6428 -74.7422 280° West 311 358 13,900 1,587 Climbing New York Center
Fri 07:44:23 PM 40.6575 -74.8553 280° West 311 358 14,700 615 Climbing New York Center
Fri 07:45:20 PM 40.6703 -74.9681 279° West 338 389 15,100 763 Climbing New York Center
Fri 07:46:21 PM 40.6650 -75.1183 267° West 372 428 16,200 934 Climbing New York Center
Fri 07:47:22 PM 40.6125 -75.2381 240° Southwest 378 435 17,000 893 Climbing New York Center
Fri 07:48:22 PM 40.5536 -75.3625 238° Southwest 396 456 18,000 800 Climbing New York Center
Fri 07:49:22 PM 40.5011 -75.4792 239° Southwest 412 474 18,600 1,119 Climbing New York Center
Fri 07:50:20 PM 40.4392 -75.6139 239° Southwest 412 474 20,200 2,034 Climbing New York Center
Fri 07:51:20 PM 40.3842 -75.7356 239° Southwest 406 467 22,600 2,213 Climbing New York Center
Fri 07:52:22 PM 40.3317 -75.8433 237° Southwest 382 440 24,700 1,512 Climbing New York Center
Fri 07:53:23 PM 40.2789 -75.9564 239° Southwest 369 425 25,700 1,008 Climbing New York Center
Fri 07:54:21 PM 40.2239 -76.0694 238° Southwest 369 425 26,700 1,008 Climbing New York Center
Fri 07:55:22 PM 40.1706 -76.1847 239° Southwest 374 430 27,700 958 Climbing New York Center
Fri 07:56:20 PM 40.1178 -76.2892 237° Southwest 379 436 28,600 958 Climbing New York Center
Fri 07:57:21 PM 40.0642 -76.4100 240° Southwest 379 436 29,600 976 Climbing New York Center
Fri 07:58:23 PM 40.0086 -76.5247 238° Southwest 379 436 30,600 1,050 Climbing New York Center
Fri 07:59:21 PM 39.9522 -76.6556 241° Southwest 379 436 31,700 1,261 Climbing New York Center
Fri 08:00:22 PM 39.9008 -76.7622 238° Southwest 384 442 33,100 1,240 Climbing New York Center
Fri 08:01:22 PM 39.8469 -76.8792 239° Southwest 384 442 34,200 1,240 Climbing New York Center
Fri 08:02:23 PM 39.7844 -77.0064 237° Southwest 377 434 35,600 885 Climbing Washington Center
Fri 08:03:24 PM 39.7311 -77.1186 238° Southwest 356 410 36,000 198 Climbing Washington Center
Fri 08:04:24 PM 39.6775 -77.2333 239° Southwest 363 418 36,000  Level Washington Center
Fri 08:05:25 PM 39.6217 -77.3561 239° Southwest 378 435 36,000  Level Washington Center
Fri 08:06:25 PM 39.5614 -77.4811 238° Southwest 403 464 36,000  Level Washington Center
Fri 08:07:23 PM 39.4989 -77.6086 238° Southwest 416 479 36,000  Level Washington Center
Fri 08:08:24 PM 39.4403 -77.7358 239° Southwest 422 486 36,000  Level Washington Center
Fri 08:09:24 PM 39.3797 -77.8631 238° Southwest 422 486 36,000  Level Washington Center
Fri 08:10:25 PM 39.3269 -77.9983 243° Southwest 422 486 36,000  Level Washington Center
Fri 08:11:24 PM 39.2764 -78.1281 243° Southwest 417 480 36,000  Level Washington Center
Fri 08:12:25 PM 39.2217 -78.2572 241° Southwest 417 480 36,000  Level Washington Center
Fri 08:13:25 PM 39.1706 -78.3894 244° Southwest 412 474 36,000  Level Washington Center
Fri 08:14:23 PM 39.1175 -78.5183 242° Southwest 412 474 36,000  Level Washington Center
Fri 08:15:24 PM 39.0664 -78.6475 243° Southwest 407 468 36,000  Level Washington Center
Fri 08:16:25 PM 39.0150 -78.7761 243° Southwest 407 468 36,000  Level Washington Center
Fri 08:17:26 PM 38.9639 -78.9019 242° Southwest 402 463 36,000  Level Washington Center
Fri 08:18:23 PM 38.9122 -79.0331 243° Southwest 407 468 36,000  Level Washington Center
Fri 08:19:23 PM 38.8583 -79.1586 241° Southwest 407 468 36,000  Level Washington Center
Fri 08:20:24 PM 38.8250 -79.2956 253° West 402 463 36,000  Level Washington Center
Fri 08:21:24 PM 38.8000 -79.4303 257° West 397 457 36,000  Level Washington Center
Fri 08:22:25 PM 38.7767 -79.5728 258° West 397 457 36,000  Level Washington Center
Fri 08:23:23 PM 38.7511 -79.7097 257° West 402 463 36,000 -403 Level Washington Center
Fri 08:24:24 PM 38.7256 -79.8467 257° West 407 468 35,200 -1,131 Descending Washington Center
Fri 08:25:25 PM 38.7022 -79.9731 257° West 414 476 33,700 -1,513 Descending Washington Center
Fri 08:26:23 PM 38.6761 -80.1125 257° West 414 476 32,200 -887 Descending Washington Center
Fri 08:27:20 PM 38.6478 -80.2450 255° West 418 481 32,000 -101 Descending Indianapolis Center
Fri 08:28:22 PM 38.6200 -80.3928 257° West 425 489 32,000  Level Indianapolis Center
Fri 08:29:23 PM 38.5928 -80.5411 257° West 426 490 32,000  Level Indianapolis Center
Fri 08:30:25 PM 38.5633 -80.6908 256° West 431 496 32,000  Level Indianapolis Center
Fri 08:31:26 PM 38.5289 -80.8692 256° West 431 496 32,000  Level Indianapolis Center
Fri 08:32:28 PM 38.4994 -81.0192 256° West 433 498 32,000  Level Indianapolis Center
Fri 08:33:29 PM 38.4703 -81.1692 256° West 432 497 32,000  Level Indianapolis Center
Fri 08:34:31 PM 38.4408 -81.3197 256° West 432 497 32,000  Level Indianapolis Center
Fri 08:35:32 PM 38.4106 -81.4703 256° West 432 497 32,000  Level Indianapolis Center
Fri 08:36:34 PM 38.3808 -81.6208 256° West 433 498 32,000  Level Indianapolis Center
Fri 08:37:35 PM 38.3492 -81.7703 255° West 432 497 32,000  Level Indianapolis Center
Fri 08:38:37 PM 38.3097 -81.9161 251° West 434 499 32,000  Level Indianapolis Center
Fri 08:39:38 PM 38.2689 -82.0617 250° West 435 501 32,000  Level Indianapolis Center
Fri 08:40:40 PM 38.2275 -82.2081 250° West 438 504 32,000  Level Indianapolis Center
Fri 08:41:41 PM 38.1858 -82.3544 250° West 438 504 32,000  Level Indianapolis Center
Fri 08:42:43 PM 38.1422 -82.5078 250° West 440 506 32,000  Level Indianapolis Center
Fri 08:43:44 PM 38.1006 -82.6531 250° West 438 504 32,000  Level Indianapolis Center
Fri 08:44:46 PM 38.0506 -82.8222 249° West 440 506 32,000  Level Indianapolis Center
Fri 08:45:47 PM 38.0078 -82.9675 250° West 440 506 32,000  Level Indianapolis Center
Fri 08:46:48 PM 37.9650 -83.1128 250° West 441 507 32,000  Level Indianapolis Center
Fri 08:47:50 PM 37.9019 -83.2456 239° Southwest 442 509 32,000  Level Indianapolis Center
Fri 08:48:51 PM 37.8344 -83.3703 236° Southwest 432 497 32,000  Level Indianapolis Center
Fri 08:49:53 PM 37.7667 -83.4964 236° Southwest 433 498 32,000  Level Indianapolis Center
Fri 08:50:54 PM 37.6986 -83.6222 236° Southwest 432 497 32,000  Level Indianapolis Center
Fri 08:51:55 PM 37.6192 -83.7692 236° Southwest 433 498 32,000  Level Indianapolis Center
Fri 08:52:57 PM 37.5506 -83.8942 235° Southwest 434 499 32,000  Level Indianapolis Center
Fri 08:53:58 PM 37.4842 -84.0183 236° Southwest 428 493 32,000  Level Indianapolis Center
Fri 08:54:59 PM 37.4156 -84.1433 235° Southwest 432 497 32,000  Level Indianapolis Center
Fri 08:56:01 PM 37.3483 -84.2675 236° Southwest 430 495 32,000  Level Indianapolis Center
Fri 08:57:02 PM 37.2786 -84.3933 235° Southwest 437 503 32,000  Level Indianapolis Center
Fri 08:58:03 PM 37.2092 -84.5153 234° Southwest 433 498 32,000  Level Indianapolis Center
Fri 08:59:05 PM 37.1411 -84.6392 235° Southwest 433 498 32,000 -780 Level Indianapolis Center
Fri 09:00:06 PM 37.0619 -84.7789 235° Southwest 422 486 30,400 -1,525 Descending Indianapolis Center
Fri 09:01:07 PM 37.0064 -84.8794 235° Southwest 418 481 28,900 -1,721 Descending Indianapolis Center
Fri 09:02:08 PM 36.9228 -85.0328 236° Southwest 445 512 26,900 -1,770 Descending Indianapolis Center
Fri 09:03:09 PM 36.8589 -85.1686 240° Southwest 453 521 25,300 -1,707 Descending Indianapolis Center
Fri 09:04:11 PM 36.7972 -85.3022 240° Southwest 450 518 23,400 -1,659 Descending Indianapolis Center
Fri 09:05:12 PM 36.7361 -85.4300 239° Southwest 437 503 21,900 -1,672 Descending Indianapolis Center
Fri 09:06:13 PM 36.6775 -85.5550 240° Southwest 420 483 20,000 -2,016 Descending Indianapolis Center
Fri 09:07:14 PM 36.6208 -85.6747 239° Southwest 405 466 17,800 -2,115 Descending Indianapolis Center
Fri 09:08:15 PM 36.5653 -85.7903 239° Southwest 392 451 15,700 -2,244 Descending Indianapolis Center
Fri 09:09:17 PM 36.5158 -85.8969 240° Southwest 350 403 13,200 -2,000 Descending Indianapolis Center
Fri 09:10:18 PM 36.4703 -85.9914 239° Southwest 317 365 11,600 -1,579 Descending Indianapolis Center
Fri 09:10:33 PM 36.4500 -86.0167 225° Southwest 293 337 11,200 -1,258 Descending Nashville TRACON
Fri 09:11:20 PM 36.4331 -86.0831 252° West 303 349 10,300 -1,570 Descending Memphis Center
Fri 09:12:20 PM 36.3983 -86.1700 244° Southwest 286 329 8,400 -1,950 Descending Memphis Center
Fri 09:13:20 PM 36.3658 -86.2542 244° Southwest 286 329 6,400 -1,750 Descending Memphis Center
Fri 09:14:20 PM 36.3331 -86.3356 243° Southwest 281 323 4,900 -1,300 Descending Memphis Center
Fri 09:15:20 PM 36.2981 -86.4172 242° Southwest 274 315 3,800 -950 Descending Memphis Center
Fri 09:16:20 PM 36.2633 -86.5064 244° Southwest 269 310 3,000 -750 Descending Memphis Center
Fri 09:17:20 PM 36.2325 -86.5850 244° Southwest 269 310 2,300 -700 Descending Memphis Center

Login

Don't have an account? Register now (free) for customized features, flight alerts, and more!